sensor_id;sensor_type;location;lat;lon;timestamp;pressure;altitude;pressure_sealevel;temperature;humidity
20444;BME280;10381;53.730;10.010;2023-05-18T00:01:48;102383.28;;;5.92;100.00
20444;BME280;10381;53.730;10.010;2023-05-18T00:05:48;102388.59;;;5.91;100.00
20444;BME280;10381;53.730;10.010;2023-05-18T00:09:48;102386.75;;;5.94;100.00
20444;BME280;10381;53.730;10.010;2023-05-18T00:13:49;102390.03;;;6.00;100.00
20444;BME280;10381;53.730;10.010;2023-05-18T00:17:49;102399.06;;;5.92;100.00
20444;BME280;10381;53.730;10.010;2023-05-18T00:21:52;102394.63;;;5.94;100.00
20444;BME280;10381;53.730;10.010;2023-05-18T00:25:56;102401.16;;;5.84;100.00
20444;BME280;10381;53.730;10.010;2023-05-18T00:29:57;102398.41;;;5.87;100.00
20444;BME280;10381;53.730;10.010;2023-05-18T00:33:57;102402.09;;;5.83;100.00
20444;BME280;10381;53.730;10.010;2023-05-18T00:37:57;102405.88;;;5.76;100.00
20444;BME280;10381;53.730;10.010;2023-05-18T00:41:57;102402.84;;;5.65;100.00
20444;BME280;10381;53.730;10.010;2023-05-18T00:45:58;102400.16;;;5.66;100.00
20444;BME280;10381;53.730;10.010;2023-05-18T00:49:58;102403.31;;;5.54;100.00
20444;BME280;10381;53.730;10.010;2023-05-18T00:54:00;102411.50;;;5.46;100.00
20444;BME280;10381;53.730;10.010;2023-05-18T00:58:01;102407.34;;;5.19;100.00
20444;BME280;10381;53.730;10.010;2023-05-18T01:02:01;102401.06;;;5.01;100.00
20444;BME280;10381;53.730;10.010;2023-05-18T01:06:03;102405.53;;;4.75;100.00
20444;BME280;10381;53.730;10.010;2023-05-18T01:10:05;102408.69;;;4.61;100.00
20444;BME280;10381;53.730;10.010;2023-05-18T01:14:15;102411.72;;;4.51;100.00
20444;BME280;10381;53.730;10.010;2023-05-18T01:18:59;102411.53;;;4.32;100.00
20444;BME280;10381;53.730;10.010;2023-05-18T01:27:45;102418.06;;;3.95;100.00
20444;BME280;10381;53.730;10.010;2023-05-18T01:31:45;102418.94;;;3.95;100.00
20444;BME280;10381;53.730;10.010;2023-05-18T01:35:46;102421.16;;;4.06;100.00
20444;BME280;10381;53.730;10.010;2023-05-18T01:39:49;102417.22;;;4.19;100.00
20444;BME280;10381;53.730;10.010;2023-05-18T01:48:15;102419.03;;;4.17;100.00
20444;BME280;10381;53.730;10.010;2023-05-18T01:52:20;102427.81;;;4.16;100.00
20444;BME280;10381;53.730;10.010;2023-05-18T01:56:22;102423.88;;;4.04;100.00
20444;BME280;10381;53.730;10.010;2023-05-18T02:00:23;102417.00;;;4.00;100.00
20444;BME280;10381;53.730;10.010;2023-05-18T02:04:23;102433.38;;;4.07;100.00
20444;BME280;10381;53.730;10.010;2023-05-18T02:08:23;102425.44;;;4.09;100.00
20444;BME280;10381;53.730;10.010;2023-05-18T02:12:23;102423.47;;;4.15;100.00
20444;BME280;10381;53.730;10.010;2023-05-18T02:16:24;102420.53;;;4.24;100.00
20444;BME280;10381;53.730;10.010;2023-05-18T02:20:24;102420.66;;;4.21;100.00
20444;BME280;10381;53.730;10.010;2023-05-18T02:24:24;102422.34;;;4.47;100.00
20444;BME280;10381;53.730;10.010;2023-05-18T02:28:25;102425.09;;;4.66;100.00
20444;BME280;10381;53.730;10.010;2023-05-18T02:32:25;102422.59;;;4.63;100.00
20444;BME280;10381;53.730;10.010;2023-05-18T02:36:26;102434.66;;;4.69;100.00
20444;BME280;10381;53.730;10.010;2023-05-18T02:40:27;102427.31;;;4.79;100.00
20444;BME280;10381;53.730;10.010;2023-05-18T02:44:27;102427.09;;;4.83;100.00
20444;BME280;10381;53.730;10.010;2023-05-18T02:48:27;102428.72;;;4.64;100.00
20444;BME280;10381;53.730;10.010;2023-05-18T02:52:28;102427.19;;;4.82;100.00
20444;BME280;10381;53.730;10.010;2023-05-18T02:56:28;102429.97;;;4.77;100.00
20444;BME280;10381;53.730;10.010;2023-05-18T03:00:29;102430.94;;;4.75;100.00
20444;BME280;10381;53.730;10.010;2023-05-18T03:04:30;102424.16;;;4.69;100.00
20444;BME280;10381;53.730;10.010;2023-05-18T03:08:31;102431.75;;;4.77;100.00
20444;BME280;10381;53.730;10.010;2023-05-18T03:12:32;102435.34;;;4.74;100.00
20444;BME280;10381;53.730;10.010;2023-05-18T03:16:32;102426.78;;;4.69;100.00
20444;BME280;10381;53.730;10.010;2023-05-18T03:20:32;102429.00;;;4.80;100.00
20444;BME280;10381;53.730;10.010;2023-05-18T03:24:34;102438.31;;;4.88;100.00
20444;BME280;10381;53.730;10.010;2023-05-18T03:28:39;102442.22;;;5.00;100.00
20444;BME280;10381;53.730;10.010;2023-05-18T03:32:39;102446.91;;;5.16;100.00
20444;BME280;10381;53.730;10.010;2023-05-18T03:36:40;102444.44;;;5.33;100.00
20444;BME280;10381;53.730;10.010;2023-05-18T03:40:41;102447.22;;;5.30;100.00
20444;BME280;10381;53.730;10.010;2023-05-18T03:44:41;102449.34;;;5.42;100.00
20444;BME280;10381;53.730;10.010;2023-05-18T03:48:42;102452.63;;;5.69;100.00
20444;BME280;10381;53.730;10.010;2023-05-18T03:52:43;102447.44;;;5.88;100.00
20444;BME280;10381;53.730;10.010;2023-05-18T03:56:43;102456.94;;;5.92;100.00
20444;BME280;10381;53.730;10.010;2023-05-18T04:00:43;102455.97;;;5.95;100.00
20444;BME280;10381;53.730;10.010;2023-05-18T04:04:44;102460.75;;;5.85;100.00
20444;BME280;10381;53.730;10.010;2023-05-18T04:08:47;102462.19;;;5.92;100.00
20444;BME280;10381;53.730;10.010;2023-05-18T04:12:47;102459.47;;;6.16;100.00
20444;BME280;10381;53.730;10.010;2023-05-18T04:16:48;102468.53;;;6.29;100.00
20444;BME280;10381;53.730;10.010;2023-05-18T04:20:48;102474.66;;;6.30;100.00
20444;BME280;10381;53.730;10.010;2023-05-18T04:24:48;102483.84;;;6.60;100.00
20444;BME280;10381;53.730;10.010;2023-05-18T04:28:49;102485.34;;;6.66;100.00
20444;BME280;10381;53.730;10.010;2023-05-18T04:32:50;102487.41;;;6.59;100.00
20444;BME280;10381;53.730;10.010;2023-05-18T04:36:51;102494.56;;;6.76;100.00
20444;BME280;10381;53.730;10.010;2023-05-18T04:40:53;102499.16;;;6.52;100.00
20444;BME280;10381;53.730;10.010;2023-05-18T04:44:56;102503.38;;;6.75;100.00
20444;BME280;10381;53.730;10.010;2023-05-18T04:48:56;102499.94;;;7.32;100.00
20444;BME280;10381;53.730;10.010;2023-05-18T04:53:00;102512.06;;;7.72;100.00
20444;BME280;10381;53.730;10.010;2023-05-18T04:57:01;102512.56;;;7.61;100.00
20444;BME280;10381;53.730;10.010;2023-05-18T05:01:02;102516.13;;;7.97;100.00
20444;BME280;10381;53.730;10.010;2023-05-18T05:05:03;102522.25;;;8.32;100.00
20444;BME280;10381;53.730;10.010;2023-05-18T05:09:03;102520.88;;;8.60;100.00
20444;BME280;10381;53.730;10.010;2023-05-18T05:13:03;102518.06;;;8.63;100.00
20444;BME280;10381;53.730;10.010;2023-05-18T05:17:04;102521.06;;;8.90;100.00
20444;BME280;10381;53.730;10.010;2023-05-18T05:21:04;102531.66;;;9.22;100.00
20444;BME280;10381;53.730;10.010;2023-05-18T05:25:05;102537.22;;;9.49;100.00
20444;BME280;10381;53.730;10.010;2023-05-18T05:29:06;102533.59;;;9.02;100.00
20444;BME280;10381;53.730;10.010;2023-05-18T05:33:06;102540.88;;;9.46;100.00
20444;BME280;10381;53.730;10.010;2023-05-18T05:37:06;102546.63;;;8.02;100.00
20444;BME280;10381;53.730;10.010;2023-05-18T05:41:06;102551.63;;;8.26;100.00
20444;BME280;10381;53.730;10.010;2023-05-18T05:45:07;102551.44;;;9.14;100.00
20444;BME280;10381;53.730;10.010;2023-05-18T05:49:07;102557.34;;;9.51;100.00
20444;BME280;10381;53.730;10.010;2023-05-18T05:53:08;102558.50;;;8.98;100.00
20444;BME280;10381;53.730;10.010;2023-05-18T05:57:08;102561.97;;;8.99;100.00
20444;BME280;10381;53.730;10.010;2023-05-18T06:01:09;102566.09;;;8.71;100.00
20444;BME280;10381;53.730;10.010;2023-05-18T06:05:10;102569.88;;;8.83;100.00
20444;BME280;10381;53.730;10.010;2023-05-18T06:09:10;102564.34;;;9.68;100.00
20444;BME280;10381;53.730;10.010;2023-05-18T06:13:10;102567.06;;;9.98;100.00
20444;BME280;10381;53.730;10.010;2023-05-18T06:17:11;102569.72;;;9.98;100.00
20444;BME280;10381;53.730;10.010;2023-05-18T06:21:11;102583.53;;;10.50;100.00
20444;BME280;10381;53.730;10.010;2023-05-18T06:25:11;102588.63;;;8.43;100.00
20444;BME280;10381;53.730;10.010;2023-05-18T06:29:11;102580.88;;;8.40;100.00
20444;BME280;10381;53.730;10.010;2023-05-18T06:33:12;102583.19;;;8.46;100.00
20444;BME280;10381;53.730;10.010;2023-05-18T06:37:13;102579.44;;;8.85;100.00
20444;BME280;10381;53.730;10.010;2023-05-18T06:41:13;102588.53;;;9.62;100.00
20444;BME280;10381;53.730;10.010;2023-05-18T06:45:14;102595.25;;;9.84;100.00
20444;BME280;10381;53.730;10.010;2023-05-18T06:49:16;102596.63;;;9.43;100.00
20444;BME280;10381;53.730;10.010;2023-05-18T06:53:16;102601.66;;;10.86;100.00
20444;BME280;10381;53.730;10.010;2023-05-18T06:57:17;102600.22;;;9.58;100.00
20444;BME280;10381;53.730;10.010;2023-05-18T07:01:17;102600.72;;;11.01;100.00
20444;BME280;10381;53.730;10.010;2023-05-18T07:05:18;102599.38;;;9.57;100.00
20444;BME280;10381;53.730;10.010;2023-05-18T07:09:18;102594.00;;;9.26;100.00
20444;BME280;10381;53.730;10.010;2023-05-18T07:13:18;102595.84;;;9.57;100.00
20444;BME280;10381;53.730;10.010;2023-05-18T07:17:19;102597.63;;;11.38;100.00
20444;BME280;10381;53.730;10.010;2023-05-18T07:21:19;102595.75;;;9.58;100.00
20444;BME280;10381;53.730;10.010;2023-05-18T07:25:19;102590.75;;;9.21;100.00
20444;BME280;10381;53.730;10.010;2023-05-18T07:29:20;102593.78;;;9.46;100.00
20444;BME280;10381;53.730;10.010;2023-05-18T07:33:20;102593.41;;;8.87;100.00
20444;BME280;10381;53.730;10.010;2023-05-18T07:37:20;102594.81;;;10.68;100.00
20444;BME280;10381;53.730;10.010;2023-05-18T07:41:21;102594.59;;;12.65;100.00
20444;BME280;10381;53.730;10.010;2023-05-18T07:45:21;102606.09;;;12.78;100.00
20444;BME280;10381;53.730;10.010;2023-05-18T07:49:22;102604.97;;;11.04;100.00
20444;BME280;10381;53.730;10.010;2023-05-18T07:53:23;102604.56;;;9.59;100.00
20444;BME280;10381;53.730;10.010;2023-05-18T07:57:23;102598.44;;;10.20;100.00
20444;BME280;10381;53.730;10.010;2023-05-18T08:01:24;102599.22;;;10.22;100.00
20444;BME280;10381;53.730;10.010;2023-05-18T08:05:28;102597.03;;;9.51;100.00
20444;BME280;10381;53.730;10.010;2023-05-18T08:09:28;102594.91;;;9.90;100.00
20444;BME280;10381;53.730;10.010;2023-05-18T08:13:28;102612.75;;;9.70;100.00
20444;BME280;10381;53.730;10.010;2023-05-18T08:17:29;102606.38;;;10.36;100.00
20444;BME280;10381;53.730;10.010;2023-05-18T08:21:29;102598.66;;;9.54;100.00
20444;BME280;10381;53.730;10.010;2023-05-18T08:25:29;102603.25;;;10.14;100.00
20444;BME280;10381;53.730;10.010;2023-05-18T08:29:30;102602.59;;;13.04;100.00
20444;BME280;10381;53.730;10.010;2023-05-18T08:33:30;102609.38;;;14.31;100.00
20444;BME280;10381;53.730;10.010;2023-05-18T08:37:31;102605.66;;;15.37;94.01
20444;BME280;10381;53.730;10.010;2023-05-18T08:41:35;102599.69;;;14.77;86.87
20444;BME280;10381;53.730;10.010;2023-05-18T08:45:40;102606.63;;;14.44;88.33
20444;BME280;10381;53.730;10.010;2023-05-18T08:49:45;102591.22;;;14.47;86.82
20444;BME280;10381;53.730;10.010;2023-05-18T08:53:53;102592.41;;;14.32;86.18
20444;BME280;10381;53.730;10.010;2023-05-18T08:57:56;102589.59;;;12.73;95.64
20444;BME280;10381;53.730;10.010;2023-05-18T09:01:59;102575.72;;;13.45;100.00
20444;BME280;10381;53.730;10.010;2023-05-18T09:05:59;102594.50;;;13.05;96.80
20444;BME280;10381;53.730;10.010;2023-05-18T09:10:01;102595.59;;;11.97;97.04
20444;BME280;10381;53.730;10.010;2023-05-18T09:14:02;102591.59;;;12.44;96.00
20444;BME280;10381;53.730;10.010;2023-05-18T09:18:02;102593.19;;;12.07;97.60
20444;BME280;10381;53.730;10.010;2023-05-18T09:22:03;102581.75;;;11.92;98.94
20444;BME280;10381;53.730;10.010;2023-05-18T09:26:03;102587.53;;;13.15;92.14
20444;BME280;10381;53.730;10.010;2023-05-18T09:30:09;102582.25;;;11.43;100.00
20444;BME280;10381;53.730;10.010;2023-05-18T09:34:10;102572.63;;;12.36;100.00
20444;BME280;10381;53.730;10.010;2023-05-18T09:38:11;102573.91;;;10.92;100.00
20444;BME280;10381;53.730;10.010;2023-05-18T09:42:14;102568.50;;;12.45;100.00
20444;BME280;10381;53.730;10.010;2023-05-18T09:46:14;102562.88;;;11.97;100.00
20444;BME280;10381;53.730;10.010;2023-05-18T09:50:18;102567.59;;;13.59;99.24
20444;BME280;10381;53.730;10.010;2023-05-18T09:54:18;102560.16;;;13.52;100.00
20444;BME280;10381;53.730;10.010;2023-05-18T09:58:19;102562.88;;;11.97;100.00
20444;BME280;10381;53.730;10.010;2023-05-18T10:02:19;102565.53;;;12.62;100.00
20444;BME280;10381;53.730;10.010;2023-05-18T10:06:25;102561.84;;;13.53;98.53
20444;BME280;10381;53.730;10.010;2023-05-18T10:10:27;102558.00;;;13.57;94.90
20444;BME280;10381;53.730;10.010;2023-05-18T10:14:31;102556.59;;;13.88;100.00
20444;BME280;10381;53.730;10.010;2023-05-18T10:18:36;102552.03;;;14.01;93.18
20444;BME280;10381;53.730;10.010;2023-05-18T10:22:37;102552.56;;;13.82;93.63
20444;BME280;10381;53.730;10.010;2023-05-18T10:26:39;102544.13;;;13.64;98.41
20444;BME280;10381;53.730;10.010;2023-05-18T10:30:41;102538.22;;;13.48;96.33
20444;BME280;10381;53.730;10.010;2023-05-18T10:34:42;102545.13;;;12.88;100.00
20444;BME280;10381;53.730;10.010;2023-05-18T10:38:45;102542.13;;;12.93;100.00
20444;BME280;10381;53.730;10.010;2023-05-18T10:42:46;102542.22;;;12.27;100.00
20444;BME280;10381;53.730;10.010;2023-05-18T10:46:48;102542.91;;;12.04;100.00
20444;BME280;10381;53.730;10.010;2023-05-18T10:50:50;102539.38;;;13.81;100.00
20444;BME280;10381;53.730;10.010;2023-05-18T10:54:51;102540.44;;;14.02;100.00
20444;BME280;10381;53.730;10.010;2023-05-18T10:58:54;102543.56;;;13.72;100.00
20444;BME280;10381;53.730;10.010;2023-05-18T11:02:55;102533.97;;;13.46;90.38
20444;BME280;10381;53.730;10.010;2023-05-18T11:06:59;102546.97;;;13.98;90.85
20444;BME280;10381;53.730;10.010;2023-05-18T11:11:04;102543.31;;;13.99;96.14
20444;BME280;10381;53.730;10.010;2023-05-18T11:15:07;102542.53;;;14.21;90.67
20444;BME280;10381;53.730;10.010;2023-05-18T11:19:08;102544.69;;;14.52;88.24
20444;BME280;10381;53.730;10.010;2023-05-18T11:23:11;102542.44;;;14.58;85.50
20444;BME280;10381;53.730;10.010;2023-05-18T11:27:19;102545.47;;;14.54;85.77
20444;BME280;10381;53.730;10.010;2023-05-18T11:31:19;102539.91;;;13.97;84.40
20444;BME280;10381;53.730;10.010;2023-05-18T11:35:23;102539.09;;;12.08;94.27
20444;BME280;10381;53.730;10.010;2023-05-18T11:39:23;102539.13;;;13.84;90.19
20444;BME280;10381;53.730;10.010;2023-05-18T11:43:24;102526.78;;;14.07;91.52
20444;BME280;10381;53.730;10.010;2023-05-18T11:47:28;102523.91;;;14.68;87.91
20444;BME280;10381;53.730;10.010;2023-05-18T11:51:31;102520.84;;;14.15;87.31
20444;BME280;10381;53.730;10.010;2023-05-18T11:55:40;102514.56;;;14.85;92.17
20444;BME280;10381;53.730;10.010;2023-05-18T11:59:42;102519.53;;;14.89;87.49
20444;BME280;10381;53.730;10.010;2023-05-18T12:03:43;102521.94;;;14.81;91.91
20444;BME280;10381;53.730;10.010;2023-05-18T12:07:50;102523.06;;;14.67;88.72
20444;BME280;10381;53.730;10.010;2023-05-18T12:11:51;102508.50;;;14.94;85.92
20444;BME280;10381;53.730;10.010;2023-05-18T12:15:53;102511.53;;;14.56;90.50
20444;BME280;10381;53.730;10.010;2023-05-18T12:19:54;102503.28;;;14.59;88.83
20444;BME280;10381;53.730;10.010;2023-05-18T12:23:59;102507.63;;;14.71;88.85
20444;BME280;10381;53.730;10.010;2023-05-18T12:27:59;102507.16;;;14.77;87.11
20444;BME280;10381;53.730;10.010;2023-05-18T12:32:04;102507.16;;;14.77;84.49
20444;BME280;10381;53.730;10.010;2023-05-18T12:36:09;102503.28;;;14.93;84.58
20444;BME280;10381;53.730;10.010;2023-05-18T12:40:10;102500.66;;;15.36;78.41
20444;BME280;10381;53.730;10.010;2023-05-18T12:44:11;102488.94;;;15.27;76.79
20444;BME280;10381;53.730;10.010;2023-05-18T12:48:12;102495.94;;;14.38;70.94
20444;BME280;10381;53.730;10.010;2023-05-18T12:52:15;102495.53;;;14.89;75.64
20444;BME280;10381;53.730;10.010;2023-05-18T12:56:15;102485.31;;;14.83;78.48
20444;BME280;10381;53.730;10.010;2023-05-18T13:00:18;102489.06;;;15.15;77.55
20444;BME280;10381;53.730;10.010;2023-05-18T13:04:18;102487.66;;;15.43;77.18
20444;BME280;10381;53.730;10.010;2023-05-18T13:08:19;102478.88;;;14.86;82.34
20444;BME280;10381;53.730;10.010;2023-05-18T13:12:42;102479.97;;;14.83;83.88
20444;BME280;10381;53.730;10.010;2023-05-18T13:16:44;102468.00;;;14.89;84.35
20444;BME280;10381;53.730;10.010;2023-05-18T13:24:49;102465.00;;;15.26;78.49
20444;BME280;10381;53.730;10.010;2023-05-18T13:28:52;102455.44;;;15.12;86.18
20444;BME280;10381;53.730;10.010;2023-05-18T13:32:53;102457.47;;;16.16;81.32
20444;BME280;10381;53.730;10.010;2023-05-18T13:36:53;102455.06;;;16.75;75.68
20444;BME280;10381;53.730;10.010;2023-05-18T13:40:54;102454.00;;;16.56;75.33
20444;BME280;10381;53.730;10.010;2023-05-18T13:44:54;102448.88;;;16.74;72.56
20444;BME280;10381;53.730;10.010;2023-05-18T13:48:55;102452.56;;;17.72;71.12
20444;BME280;10381;53.730;10.010;2023-05-18T13:52:55;102451.13;;;15.96;68.38
20444;BME280;10381;53.730;10.010;2023-05-18T13:56:55;102446.13;;;16.95;73.53
20444;BME280;10381;53.730;10.010;2023-05-18T14:00:55;102438.88;;;17.36;74.95
20444;BME280;10381;53.730;10.010;2023-05-18T14:04:56;102440.59;;;17.76;69.75
20444;BME280;10381;53.730;10.010;2023-05-18T14:08:57;102429.56;;;17.89;64.72
20444;BME280;10381;53.730;10.010;2023-05-18T14:12:57;102427.28;;;17.07;63.22
20444;BME280;10381;53.730;10.010;2023-05-18T14:16:58;102425.22;;;18.45;62.67
20444;BME280;10381;53.730;10.010;2023-05-18T14:20:58;102421.72;;;17.49;68.87
20444;BME280;10381;53.730;10.010;2023-05-18T14:25:01;102424.28;;;16.90;75.44
20444;BME280;10381;53.730;10.010;2023-05-18T14:29:02;102419.28;;;17.16;69.01
20444;BME280;10381;53.730;10.010;2023-05-18T14:33:02;102409.84;;;16.62;74.43
20444;BME280;10381;53.730;10.010;2023-05-18T14:37:03;102416.56;;;16.56;74.38
20444;BME280;10381;53.730;10.010;2023-05-18T14:41:03;102414.03;;;16.55;75.19
20444;BME280;10381;53.730;10.010;2023-05-18T14:45:04;102410.00;;;16.70;72.28
20444;BME280;10381;53.730;10.010;2023-05-18T14:49:04;102414.69;;;16.47;77.01
20444;BME280;10381;53.730;10.010;2023-05-18T14:53:05;102418.00;;;17.11;75.64
20444;BME280;10381;53.730;10.010;2023-05-18T14:57:05;102416.34;;;17.58;71.62
20444;BME280;10381;53.730;10.010;2023-05-18T15:01:05;102417.88;;;18.00;72.53
20444;BME280;10381;53.730;10.010;2023-05-18T15:05:06;102412.78;;;18.71;65.74
20444;BME280;10381;53.730;10.010;2023-05-18T15:09:06;102413.41;;;19.29;57.65
20444;BME280;10381;53.730;10.010;2023-05-18T15:13:07;102419.22;;;20.22;56.06
20444;BME280;10381;53.730;10.010;2023-05-18T15:17:07;102405.75;;;18.98;55.77
20444;BME280;10381;53.730;10.010;2023-05-18T15:21:07;102406.97;;;20.28;53.57
20444;BME280;10381;53.730;10.010;2023-05-18T15:25:08;102409.56;;;23.14;43.70
20444;BME280;10381;53.730;10.010;2023-05-18T15:29:08;102407.47;;;22.06;43.30
20444;BME280;10381;53.730;10.010;2023-05-18T15:33:08;102407.38;;;22.47;42.18
20444;BME280;10381;53.730;10.010;2023-05-18T15:37:12;102398.91;;;22.50;41.57
20444;BME280;10381;53.730;10.010;2023-05-18T15:41:12;102389.47;;;20.58;43.73
20444;BME280;10381;53.730;10.010;2023-05-18T15:45:13;102397.75;;;21.48;45.76
20444;BME280;10381;53.730;10.010;2023-05-18T15:49:14;102388.72;;;22.61;40.44
20444;BME280;10381;53.730;10.010;2023-05-18T15:53:14;102393.97;;;22.06;41.25
20444;BME280;10381;53.730;10.010;2023-05-18T15:57:14;102386.56;;;22.00;39.95
20444;BME280;10381;53.730;10.010;2023-05-18T16:01:15;102390.03;;;22.17;40.84
20444;BME280;10381;53.730;10.010;2023-05-18T16:05:15;102384.59;;;22.81;36.83
20444;BME280;10381;53.730;10.010;2023-05-18T16:09:16;102385.94;;;22.46;39.02
20444;BME280;10381;53.730;10.010;2023-05-18T16:13:16;102389.91;;;23.44;35.76
20444;BME280;10381;53.730;10.010;2023-05-18T16:17:16;102382.34;;;23.16;34.00
20444;BME280;10381;53.730;10.010;2023-05-18T16:21:17;102393.06;;;22.78;34.75
20444;BME280;10381;53.730;10.010;2023-05-18T16:25:18;102391.28;;;24.00;33.93
20444;BME280;10381;53.730;10.010;2023-05-18T16:29:18;102383.38;;;23.15;33.74
20444;BME280;10381;53.730;10.010;2023-05-18T16:33:18;102383.00;;;22.64;35.45
20444;BME280;10381;53.730;10.010;2023-05-18T16:37:19;102378.63;;;22.54;36.04
20444;BME280;10381;53.730;10.010;2023-05-18T16:41:19;102387.63;;;21.75;35.44
20444;BME280;10381;53.730;10.010;2023-05-18T16:45:20;102384.34;;;20.89;37.78
20444;BME280;10381;53.730;10.010;2023-05-18T16:49:21;102389.91;;;20.96;37.29
20444;BME280;10381;53.730;10.010;2023-05-18T16:53:21;102385.66;;;20.77;38.32
20444;BME280;10381;53.730;10.010;2023-05-18T16:57:21;102393.06;;;23.09;33.91
20444;BME280;10381;53.730;10.010;2023-05-18T17:01:23;102386.94;;;21.89;36.49
20444;BME280;10381;53.730;10.010;2023-05-18T17:05:23;102394.69;;;21.92;36.44
20444;BME280;10381;53.730;10.010;2023-05-18T17:09:23;102395.22;;;21.79;37.48
20444;BME280;10381;53.730;10.010;2023-05-18T17:13:24;102394.63;;;20.85;38.15
20444;BME280;10381;53.730;10.010;2023-05-18T17:17:24;102393.03;;;22.39;37.40
20444;BME280;10381;53.730;10.010;2023-05-18T17:21:25;102397.53;;;20.58;39.53
20444;BME280;10381;53.730;10.010;2023-05-18T17:25:27;102394.78;;;22.15;37.53
20444;BME280;10381;53.730;10.010;2023-05-18T17:29:27;102398.69;;;21.06;39.24
20444;BME280;10381;53.730;10.010;2023-05-18T17:33:28;102396.84;;;21.15;40.54
20444;BME280;10381;53.730;10.010;2023-05-18T17:37:28;102392.34;;;21.89;39.01
20444;BME280;10381;53.730;10.010;2023-05-18T17:41:29;102391.94;;;20.94;40.67
20444;BME280;10381;53.730;10.010;2023-05-18T17:45:29;102405.88;;;19.50;43.72
20444;BME280;10381;53.730;10.010;2023-05-18T17:49:29;102403.59;;;17.70;50.27
20444;BME280;10381;53.730;10.010;2023-05-18T17:53:31;102404.41;;;16.52;57.23
20444;BME280;10381;53.730;10.010;2023-05-18T17:57:32;102405.19;;;15.17;71.46
20444;BME280;10381;53.730;10.010;2023-05-18T18:01:32;102402.03;;;14.80;80.41
20444;BME280;10381;53.730;10.010;2023-05-18T18:05:33;102393.16;;;14.34;94.01
20444;BME280;10381;53.730;10.010;2023-05-18T18:09:33;102387.31;;;14.06;100.00
20444;BME280;10381;53.730;10.010;2023-05-18T18:13:33;102386.31;;;13.85;100.00
20444;BME280;10381;53.730;10.010;2023-05-18T18:17:41;102396.66;;;13.54;100.00
20444;BME280;10381;53.730;10.010;2023-05-18T18:21:41;102399.16;;;13.45;100.00
20444;BME280;10381;53.730;10.010;2023-05-18T18:25:41;102403.59;;;13.33;100.00
20444;BME280;10381;53.730;10.010;2023-05-18T18:29:42;102393.75;;;13.09;100.00
20444;BME280;10381;53.730;10.010;2023-05-18T18:33:43;102401.72;;;12.85;100.00
20444;BME280;10381;53.730;10.010;2023-05-18T18:37:46;102401.34;;;12.66;100.00
20444;BME280;10381;53.730;10.010;2023-05-18T18:41:47;102394.75;;;12.46;100.00
20444;BME280;10381;53.730;10.010;2023-05-18T18:45:47;102397.13;;;12.25;100.00
20444;BME280;10381;53.730;10.010;2023-05-18T18:49:47;102412.97;;;12.13;100.00
20444;BME280;10381;53.730;10.010;2023-05-18T18:53:47;102410.84;;;11.93;100.00
20444;BME280;10381;53.730;10.010;2023-05-18T18:57:48;102409.41;;;11.75;100.00
20444;BME280;10381;53.730;10.010;2023-05-18T19:01:48;102419.75;;;11.52;100.00
20444;BME280;10381;53.730;10.010;2023-05-18T19:05:48;102414.69;;;11.35;100.00
20444;BME280;10381;53.730;10.010;2023-05-18T19:09:49;102409.00;;;11.14;100.00
20444;BME280;10381;53.730;10.010;2023-05-18T19:13:50;102419.19;;;10.93;100.00
20444;BME280;10381;53.730;10.010;2023-05-18T19:17:50;102424.25;;;10.69;100.00
20444;BME280;10381;53.730;10.010;2023-05-18T19:21:52;102417.91;;;10.42;100.00
20444;BME280;10381;53.730;10.010;2023-05-18T19:25:52;102425.59;;;10.17;100.00
20444;BME280;10381;53.730;10.010;2023-05-18T19:29:53;102427.56;;;9.99;100.00
20444;BME280;10381;53.730;10.010;2023-05-18T19:33:54;102432.00;;;9.84;100.00
20444;BME280;10381;53.730;10.010;2023-05-18T19:37:54;102441.50;;;9.72;100.00
20444;BME280;10381;53.730;10.010;2023-05-18T19:41:55;102434.53;;;9.55;100.00
20444;BME280;10381;53.730;10.010;2023-05-18T19:45:55;102441.47;;;9.42;100.00
20444;BME280;10381;53.730;10.010;2023-05-18T19:49:55;102440.09;;;9.35;100.00
20444;BME280;10381;53.730;10.010;2023-05-18T19:53:56;102444.03;;;9.28;100.00
20444;BME280;10381;53.730;10.010;2023-05-18T19:57:57;102440.91;;;9.05;100.00
20444;BME280;10381;53.730;10.010;2023-05-18T20:01:57;102441.31;;;8.98;100.00
20444;BME280;10381;53.730;10.010;2023-05-18T20:05:58;102436.19;;;8.79;100.00
20444;BME280;10381;53.730;10.010;2023-05-18T20:09:58;102445.03;;;8.62;100.00
20444;BME280;10381;53.730;10.010;2023-05-18T20:13:59;102439.91;;;8.59;100.00
20444;BME280;10381;53.730;10.010;2023-05-18T20:18:00;102447.22;;;8.53;100.00
20444;BME280;10381;53.730;10.010;2023-05-18T20:22:01;102448.84;;;8.39;100.00
20444;BME280;10381;53.730;10.010;2023-05-18T20:26:01;102454.47;;;8.32;100.00
20444;BME280;10381;53.730;10.010;2023-05-18T20:30:02;102460.31;;;8.04;100.00
20444;BME280;10381;53.730;10.010;2023-05-18T20:34:02;102460.59;;;7.98;100.00
20444;BME280;10381;53.730;10.010;2023-05-18T20:38:02;102465.88;;;7.98;100.00
20444;BME280;10381;53.730;10.010;2023-05-18T20:42:03;102479.00;;;7.82;100.00
20444;BME280;10381;53.730;10.010;2023-05-18T20:46:04;102481.84;;;7.60;100.00
20444;BME280;10381;53.730;10.010;2023-05-18T20:50:05;102481.50;;;7.49;100.00
20444;BME280;10381;53.730;10.010;2023-05-18T20:54:05;102476.25;;;6.92;100.00